Time;durP1;ratioP1;P1;durP2;ratioP2;P2;SDS_P1;SDS_P2;PMS_P1;PMS_P2;Temp;Humidity;BMP_temperature;BMP_pressure;BME280_temperature;BME280_humidity;BME280_pressure;Samples;Min_cycle;Max_cycle;Signal;HPM_P1;HPM_P2
2021/04/16 00:01:51;;;;;;;9.43;7.20;;;5.00;99.90;;;;;;5042691;28;20097;-79
2021/04/16 00:04:22;;;;;;;12.63;8.15;;;5.00;99.90;;;;;;5073325;28;20131;-77
2021/04/16 00:06:53;;;;;;;14.93;8.20;;;5.00;99.90;;;;;;5079543;28;20056;-79
2021/04/16 00:09:23;;;;;;;10.98;8.00;;;5.00;99.90;;;;;;5071119;28;20048;-83
2021/04/16 00:12:10;;;;;;;21.20;13.77;;;5.00;99.90;;;;;;5069074;28;20048;-81
2021/04/16 00:15:25;;;;;;;12.32;8.60;;;5.00;99.90;;;;;;5075898;28;20048;-79
2021/04/16 00:18:37;;;;;;;11.43;8.23;;;4.90;99.90;;;;;;5078948;28;20079;-80
2021/04/16 00:27:35;;;;;;;;;;;;;;;;;;;;;
2021/04/16 00:33:09;;;;;;;12.70;8.05;;;4.80;99.90;;;;;;4995022;28;20058;-79
2021/04/16 00:39:05;;;;;;;14.77;9.07;;;4.80;99.90;;;;;;5042098;28;20389;-80
2021/04/16 00:41:34;;;;;;;11.75;8.25;;;4.70;99.90;;;;;;5049411;28;20394;-81
2021/04/16 00:44:10;;;;;;;15.68;8.77;;;4.70;99.90;;;;;;5056567;28;20106;-78
2021/04/16 00:46:42;;;;;;;12.75;8.70;;;4.70;99.90;;;;;;5056815;28;20082;-78
2021/04/16 00:49:14;;;;;;;13.95;8.95;;;4.70;99.90;;;;;;5063450;28;20105;-79
2021/04/16 00:51:44;;;;;;;12.68;8.73;;;4.70;99.90;;;;;;5069626;28;20053;-81
2021/04/16 00:54:17;;;;;;;15.55;9.25;;;4.70;99.90;;;;;;5065929;28;20047;-79
2021/04/16 00:56:45;;;;;;;12.35;8.15;;;4.70;99.90;;;;;;5064550;28;20055;-79
2021/04/16 00:59:15;;;;;;;13.52;8.73;;;4.60;99.90;;;;;;5062943;28;20072;-80
2021/04/16 01:01:45;;;;;;;13.75;9.00;;;4.60;99.90;;;;;;5077134;28;20055;-77
2021/04/16 01:04:12;;;;;;;13.85;8.95;;;4.60;99.90;;;;;;5086916;28;20053;-81
2021/04/16 01:06:39;;;;;;;12.38;9.52;;;4.60;99.90;;;;;;5087548;28;20052;-78
2021/04/16 01:09:08;;;;;;;12.32;8.75;;;4.50;99.90;;;;;;5087756;28;20488;-79
2021/04/16 01:11:36;;;;;;;10.38;8.07;;;4.50;99.90;;;;;;5088118;28;20048;-78
2021/04/16 01:14:03;;;;;;;10.70;8.45;;;4.50;99.90;;;;;;5087135;28;20462;-77
2021/04/16 01:16:33;;;;;;;15.07;8.80;;;4.40;99.90;;;;;;5067356;28;20524;-78
2021/04/16 01:19:07;;;;;;;13.13;8.60;;;4.40;99.90;;;;;;5076205;28;20432;-78
2021/04/16 01:21:42;;;;;;;12.60;8.85;;;4.40;99.90;;;;;;5066265;28;20053;-79
2021/04/16 01:24:21;;;;;;;12.90;9.02;;;4.30;99.90;;;;;;5069942;28;20049;-81
2021/04/16 01:26:48;;;;;;;14.20;9.13;;;4.30;99.90;;;;;;5056153;28;20057;-79
2021/04/16 01:29:15;;;;;;;13.85;8.73;;;4.30;99.90;;;;;;5063241;28;20089;-82
2021/04/16 01:31:47;;;;;;;11.35;9.32;;;4.30;99.90;;;;;;5066037;28;20045;-79
2021/04/16 01:34:14;;;;;;;9.20;7.57;;;4.20;99.90;;;;;;5071255;28;20080;-79
2021/04/16 01:36:41;;;;;;;12.10;9.18;;;4.20;99.90;;;;;;5057416;28;20128;-79
2021/04/16 01:39:07;;;;;;;11.95;9.30;;;4.10;99.90;;;;;;5060291;28;20579;-80
2021/04/16 01:41:35;;;;;;;20.13;10.45;;;4.10;99.90;;;;;;5065682;28;20132;-80
2021/04/16 01:44:06;;;;;;;16.35;9.93;;;4.10;99.90;;;;;;5070023;28;20139;-81
2021/04/16 01:46:51;;;;;;;15.00;10.10;;;4.00;99.90;;;;;;5069768;28;20076;-80
2021/04/16 01:49:18;;;;;;;14.45;10.02;;;4.00;99.90;;;;;;5079274;28;20155;-80
2021/04/16 01:51:45;;;;;;;15.80;10.20;;;4.00;99.90;;;;;;5064857;28;20493;-80
2021/04/16 01:54:13;;;;;;;12.57;9.48;;;4.00;99.90;;;;;;5074418;28;20552;-80
2021/04/16 01:56:43;;;;;;;12.43;9.68;;;3.90;99.90;;;;;;5073922;28;20051;-79
2021/04/16 01:59:11;;;;;;;15.13;9.63;;;3.90;99.90;;;;;;5074390;28;20113;-79
2021/04/16 02:01:38;;;;;;;15.30;9.85;;;3.90;99.90;;;;;;5074277;28;20135;-78
2021/04/16 02:04:05;;;;;;;12.45;9.98;;;3.90;99.90;;;;;;5074267;28;20048;-79
2021/04/16 02:06:33;;;;;;;12.75;9.35;;;3.90;99.90;;;;;;5075767;28;20504;-80
2021/04/16 02:08:59;;;;;;;11.98;9.57;;;3.90;99.90;;;;;;5081158;28;20049;-81
2021/04/16 02:11:26;;;;;;;16.25;9.85;;;3.90;99.90;;;;;;5080837;28;20079;-82
2021/04/16 02:13:53;;;;;;;15.77;10.57;;;3.80;99.90;;;;;;5079427;28;20484;-82
2021/04/16 02:16:19;;;;;;;15.48;10.43;;;3.80;99.90;;;;;;5061510;28;20128;-83
2021/04/16 02:18:46;;;;;;;14.00;9.98;;;3.80;99.90;;;;;;5051124;28;20145;-83
2021/04/16 02:21:12;;;;;;;16.15;10.70;;;3.80;99.90;;;;;;5049094;28;20068;-80
2021/04/16 02:23:39;;;;;;;13.52;9.80;;;3.80;99.90;;;;;;5047112;28;20075;-80
2021/04/16 02:26:05;;;;;;;14.13;10.27;;;3.70;99.90;;;;;;5046718;28;20648;-80
2021/04/16 02:28:32;;;;;;;15.63;9.82;;;3.80;99.90;;;;;;5069616;28;20048;-80
2021/04/16 02:30:59;;;;;;;15.27;10.00;;;3.80;99.90;;;;;;5070052;28;20083;-81
2021/04/16 02:33:25;;;;;;;14.50;9.77;;;3.80;99.90;;;;;;5062414;28;20052;-81
2021/04/16 02:35:52;;;;;;;13.80;9.93;;;3.90;99.90;;;;;;5061488;28;20520;-80
2021/04/16 02:38:18;;;;;;;15.20;10.27;;;3.90;99.90;;;;;;5053937;28;20517;-80
2021/04/16 02:40:45;;;;;;;13.27;10.13;;;3.90;99.90;;;;;;5073853;28;20461;-82
2021/04/16 02:43:11;;;;;;;13.75;10.48;;;3.90;99.90;;;;;;5070425;28;20048;-82
2021/04/16 02:45:37;;;;;;;15.18;9.93;;;3.90;99.90;;;;;;5059626;28;20088;-82
2021/04/16 02:48:06;;;;;;;15.00;9.55;;;3.90;99.90;;;;;;5059123;28;20049;-82
2021/04/16 02:50:33;;;;;;;13.73;10.82;;;4.00;99.90;;;;;;5059529;28;20049;-82
2021/04/16 02:52:59;;;;;;;15.68;10.15;;;4.10;99.90;;;;;;5059736;28;20137;-81
2021/04/16 02:55:26;;;;;;;13.25;9.85;;;4.10;99.90;;;;;;5058878;28;20060;-82
2021/04/16 02:57:53;;;;;;;13.95;10.10;;;4.10;99.90;;;;;;5068879;28;20131;-80
2021/04/16 03:00:22;;;;;;;15.05;10.00;;;4.20;99.90;;;;;;5062613;28;20128;-80
2021/04/16 03:02:49;;;;;;;13.30;9.93;;;4.20;99.90;;;;;;5074466;28;20102;-81
2021/04/16 03:05:17;;;;;;;12.02;9.43;;;4.20;99.90;;;;;;5062706;28;20582;-80
2021/04/16 03:07:43;;;;;;;12.35;10.30;;;4.30;99.90;;;;;;5048758;28;20041;-80
2021/04/16 03:10:13;;;;;;;12.82;9.18;;;4.20;99.90;;;;;;5069062;28;20509;-80
2021/04/16 03:12:39;;;;;;;13.82;10.65;;;4.30;99.90;;;;;;5063019;28;20091;-81
2021/04/16 03:15:07;;;;;;;13.32;10.73;;;4.30;99.90;;;;;;5080609;28;20059;-82
2021/04/16 03:17:33;;;;;;;12.98;10.18;;;4.20;99.90;;;;;;5078588;28;20122;-79
2021/04/16 03:20:00;;;;;;;14.52;10.70;;;4.30;99.90;;;;;;5078125;28;20051;-79
2021/04/16 03:22:27;;;;;;;15.75;11.10;;;4.30;99.90;;;;;;5078778;28;20103;-79
2021/04/16 03:24:54;;;;;;;20.13;10.55;;;4.40;99.90;;;;;;5078969;28;20553;-80
2021/04/16 03:27:20;;;;;;;14.73;10.50;;;4.40;99.90;;;;;;5077503;28;20055;-80
2021/04/16 03:29:47;;;;;;;16.33;10.98;;;4.40;99.90;;;;;;5078346;28;20131;-79
2021/04/16 03:32:13;;;;;;;14.25;9.77;;;4.40;99.90;;;;;;5079645;28;20491;-81
2021/04/16 03:34:39;;;;;;;14.50;9.70;;;4.40;99.90;;;;;;5078309;28;20424;-81
2021/04/16 03:37:06;;;;;;;14.73;10.30;;;4.30;99.90;;;;;;5077897;28;20374;-81
2021/04/16 03:39:33;;;;;;;16.58;10.45;;;4.30;99.90;;;;;;5078503;28;20045;-81
2021/04/16 03:41:59;;;;;;;14.32;10.02;;;4.30;99.90;;;;;;5077819;28;20135;-81
2021/04/16 03:44:26;;;;;;;12.95;9.77;;;4.30;99.90;;;;;;5077918;28;20080;-80
2021/04/16 03:46:52;;;;;;;14.32;10.77;;;4.40;99.90;;;;;;5084478;22;20044;-77
2021/04/16 03:49:19;;;;;;;21.30;10.85;;;4.50;99.90;;;;;;5054059;28;20049;-77
2021/04/16 03:51:51;;;;;;;13.82;10.95;;;4.60;99.90;;;;;;5054260;28;20074;-77
2021/04/16 03:54:17;;;;;;;14.63;10.90;;;4.60;99.90;;;;;;5053132;28;20131;-78
2021/04/16 03:56:44;;;;;;;16.33;11.25;;;4.70;99.90;;;;;;5053678;28;20140;-77
2021/04/16 03:59:11;;;;;;;23.23;10.48;;;4.70;99.90;;;;;;5054514;28;20135;-78
2021/04/16 04:01:38;;;;;;;16.50;10.80;;;4.80;99.90;;;;;;5054282;28;20048;-76
2021/04/16 04:04:05;;;;;;;15.85;11.05;;;4.80;99.90;;;;;;5054511;28;20131;-76
2021/04/16 04:06:31;;;;;;;20.52;11.95;;;4.80;99.90;;;;;;5053709;28;20140;-76
2021/04/16 04:08:58;;;;;;;16.63;11.75;;;4.70;99.90;;;;;;5054070;28;20045;-77
2021/04/16 04:11:24;;;;;;;16.00;11.68;;;4.70;99.90;;;;;;5054280;28;20091;-78
2021/04/16 04:13:51;;;;;;;14.32;11.30;;;4.70;99.90;;;;;;5053978;28;20102;-76
2021/04/16 04:16:18;;;;;;;14.02;11.13;;;4.70;99.90;;;;;;5053659;28;20186;-76
2021/04/16 04:18:44;;;;;;;16.00;11.35;;;4.70;99.90;;;;;;5053799;28;20508;-75
2021/04/16 04:21:11;;;;;;;16.60;12.02;;;4.70;99.90;;;;;;5054031;28;20530;-75
2021/04/16 04:23:37;;;;;;;17.05;11.77;;;4.70;99.90;;;;;;5053866;28;20091;-76
2021/04/16 04:26:03;;;;;;;14.45;11.77;;;4.80;99.90;;;;;;5054060;28;20179;-76
2021/04/16 04:28:30;;;;;;;16.63;12.10;;;4.70;99.90;;;;;;5053843;28;20065;-76
2021/04/16 04:30:57;;;;;;;18.30;11.85;;;4.60;99.90;;;;;;5053865;28;20049;-77
2021/04/16 04:33:23;;;;;;;15.88;11.23;;;4.70;99.90;;;;;;5053862;28;20135;-77
2021/04/16 04:35:50;;;;;;;17.90;11.95;;;4.60;99.90;;;;;;5054178;28;20132;-77
2021/04/16 04:38:17;;;;;;;14.70;11.65;;;4.50;99.90;;;;;;5053936;28;20048;-77
2021/04/16 04:40:44;;;;;;;19.27;12.65;;;4.50;99.90;;;;;;5053960;28;20148;-78
2021/04/16 04:43:10;;;;;;;14.98;11.52;;;4.50;99.90;;;;;;5053977;28;20056;-78
2021/04/16 04:45:37;;;;;;;18.52;12.07;;;4.60;99.90;;;;;;5053598;28;20131;-77
2021/04/16 04:48:05;;;;;;;16.67;11.93;;;4.60;99.90;;;;;;5053311;28;20080;-76
2021/04/16 04:50:32;;;;;;;17.80;11.93;;;4.70;99.90;;;;;;5053540;28;20132;-77
2021/04/16 04:52:58;;;;;;;16.10;11.52;;;4.70;99.90;;;;;;5053510;28;20132;-77
2021/04/16 04:55:27;;;;;;;16.25;11.20;;;4.70;99.90;;;;;;5053657;28;20085;-77
2021/04/16 04:57:54;;;;;;;15.73;11.50;;;4.70;99.90;;;;;;5053102;28;20576;-76
2021/04/16 05:00:21;;;;;;;16.13;12.07;;;4.70;99.90;;;;;;5053149;28;20055;-76
2021/04/16 05:02:48;;;;;;;17.25;11.95;;;4.50;99.90;;;;;;5053172;28;20075;-77
2021/04/16 05:05:17;;;;;;;15.00;11.45;;;4.30;99.90;;;;;;5052571;28;20124;-76
2021/04/16 05:07:43;;;;;;;18.55;11.77;;;4.30;99.90;;;;;;5053311;28;20560;-77
2021/04/16 05:10:11;;;;;;;17.58;11.30;;;4.40;99.90;;;;;;5053179;28;20080;-77
2021/04/16 05:12:38;;;;;;;18.17;11.05;;;4.40;99.90;;;;;;5053402;28;20100;-76
2021/04/16 05:15:06;;;;;;;14.85;11.25;;;4.40;99.90;;;;;;5053274;28;20099;-76
2021/04/16 05:17:33;;;;;;;17.00;11.45;;;4.40;99.90;;;;;;5052958;28;20056;-77
2021/04/16 05:19:59;;;;;;;17.77;11.68;;;4.50;99.90;;;;;;5053613;28;20135;-76
2021/04/16 05:22:26;;;;;;;14.98;11.35;;;4.50;99.90;;;;;;5053609;28;20079;-76
2021/04/16 05:24:53;;;;;;;16.88;11.90;;;4.50;99.90;;;;;;5053564;28;20433;-76
2021/04/16 05:27:21;;;;;;;16.25;12.02;;;4.50;99.90;;;;;;5052836;28;20438;-76
2021/04/16 05:29:48;;;;;;;17.48;11.55;;;4.60;99.90;;;;;;5053291;28;20052;-75
2021/04/16 05:32:15;;;;;;;16.40;11.50;;;4.70;99.90;;;;;;5053371;28;20132;-76
2021/04/16 05:34:42;;;;;;;16.42;11.35;;;4.90;99.90;;;;;;5052938;28;20098;-77
2021/04/16 05:37:09;;;;;;;20.58;12.63;;;5.00;99.90;;;;;;5052680;28;20049;-77
2021/04/16 05:39:37;;;;;;;15.57;11.63;;;5.00;99.90;;;;;;5053240;28;20057;-76
2021/04/16 05:42:04;;;;;;;14.60;11.63;;;5.20;99.90;;;;;;5053706;28;20052;-76
2021/04/16 05:44:30;;;;;;;15.93;11.40;;;5.30;99.90;;;;;;5052912;28;20562;-76
2021/04/16 05:46:56;;;;;;;14.82;11.90;;;5.40;99.90;;;;;;5052324;28;20136;-77
2021/04/16 05:49:25;;;;;;;14.98;10.90;;;5.50;99.90;;;;;;5053283;28;20053;-76
2021/04/16 05:51:51;;;;;;;13.85;10.70;;;5.50;99.90;;;;;;5052912;28;20053;-76
2021/04/16 05:54:18;;;;;;;17.10;10.55;;;5.50;99.90;;;;;;5052886;28;20152;-76
2021/04/16 05:56:45;;;;;;;16.48;11.15;;;5.60;99.90;;;;;;5052541;28;20447;-78
2021/04/16 05:59:12;;;;;;;16.38;10.73;;;5.60;99.90;;;;;;5052623;28;20239;-76
2021/04/16 06:01:38;;;;;;;15.90;11.80;;;5.70;99.90;;;;;;5052843;28;20076;-78
2021/04/16 06:04:05;;;;;;;18.40;11.40;;;5.70;99.90;;;;;;5053040;28;20191;-76
2021/04/16 06:06:31;;;;;;;17.88;12.13;;;5.80;99.90;;;;;;5053109;28;20136;-78
2021/04/16 06:08:58;;;;;;;16.50;12.02;;;5.80;99.90;;;;;;5053083;28;20080;-78
2021/04/16 06:11:25;;;;;;;18.65;13.82;;;5.90;99.90;;;;;;5053482;28;20088;-77
2021/04/16 06:13:53;;;;;;;27.42;16.73;;;5.90;99.90;;;;;;5054831;28;20064;-78
2021/04/16 06:16:19;;;;;;;18.83;12.05;;;6.00;99.90;;;;;;5057094;28;20128;-79
2021/04/16 06:18:45;;;;;;;17.13;12.45;;;6.10;99.90;;;;;;5061487;28;20108;-81
2021/04/16 06:21:12;;;;;;;17.42;12.25;;;6.20;99.90;;;;;;5064077;28;20045;-79
2021/04/16 06:23:39;;;;;;;19.25;11.85;;;6.20;99.90;;;;;;5067359;28;20056;-81
2021/04/16 06:26:05;;;;;;;15.57;11.85;;;6.30;99.90;;;;;;5063863;28;20137;-79
2021/04/16 06:28:32;;;;;;;14.38;11.73;;;6.40;99.90;;;;;;5061845;28;20045;-82
2021/04/16 06:31:00;;;;;;;17.90;12.02;;;6.50;99.90;;;;;;5062186;28;20124;-80
2021/04/16 06:33:28;;;;;;;17.13;12.18;;;6.60;99.90;;;;;;5063382;28;20095;-80
2021/04/16 06:35:57;;;;;;;19.77;11.80;;;6.70;99.90;;;;;;5063843;28;20065;-81
2021/04/16 06:38:29;;;;;;;15.27;11.38;;;6.80;99.90;;;;;;5062949;28;20053;-80
2021/04/16 06:40:57;;;;;;;14.18;11.18;;;6.90;99.90;;;;;;5065563;28;20045;-80
2021/04/16 06:43:26;;;;;;;15.10;11.73;;;6.90;99.90;;;;;;5066190;28;20081;-81
2021/04/16 06:45:54;;;;;;;17.42;11.32;;;7.00;99.90;;;;;;5065606;28;20454;-79
2021/04/16 06:48:22;;;;;;;19.83;13.15;;;6.90;99.90;;;;;;5062586;28;20136;-81
2021/04/16 06:50:49;;;;;;;14.52;10.88;;;7.00;99.90;;;;;;5062827;28;20124;-79
2021/04/16 06:53:24;;;;;;;15.75;11.48;;;7.00;99.90;;;;;;5061059;28;20131;-79
2021/04/16 06:56:00;;;;;;;16.85;11.77;;;7.00;99.90;;;;;;5056982;28;20136;-77
2021/04/16 06:58:31;;;;;;;14.82;11.57;;;7.00;99.90;;;;;;5056980;28;20060;-79
2021/04/16 07:01:07;;;;;;;19.45;11.85;;;6.90;99.90;;;;;;5056868;28;20041;-78
2021/04/16 07:03:40;;;;;;;14.77;10.93;;;7.00;99.90;;;;;;5056659;28;20570;-79
2021/04/16 07:06:09;;;;;;;19.35;10.88;;;7.00;99.90;;;;;;5057508;28;20084;-77
2021/04/16 07:08:40;;;;;;;16.48;11.38;;;7.10;99.90;;;;;;5059332;28;20049;-79
2021/04/16 07:11:19;;;;;;;14.13;11.23;;;7.20;99.90;;;;;;5056616;28;20088;-77
2021/04/16 07:13:46;;;;;;;16.67;10.98;;;7.10;99.90;;;;;;5056895;28;20139;-79
2021/04/16 07:16:12;;;;;;;18.20;11.30;;;7.20;99.90;;;;;;5055950;28;20136;-74
2021/04/16 07:18:42;;;;;;;18.00;11.30;;;7.40;99.90;;;;;;5055621;28;20049;-78
2021/04/16 07:21:10;;;;;;;14.48;9.98;;;7.50;99.90;;;;;;5057254;28;20045;-78
2021/04/16 07:23:47;;;;;;;12.90;10.43;;;7.60;99.90;;;;;;5057869;28;20473;-78
2021/04/16 07:26:27;;;;;;;12.82;10.05;;;7.70;99.90;;;;;;5057657;28;20468;-78
2021/04/16 07:28:56;;;;;;;14.80;10.50;;;7.90;99.90;;;;;;5059111;28;20139;-78
2021/04/16 07:31:42;;;;;;;14.70;10.27;;;8.10;99.90;;;;;;5057746;28;20049;-77
2021/04/16 07:34:30;;;;;;;15.40;10.57;;;8.20;99.90;;;;;;5057071;28;20057;-79
2021/04/16 07:37:19;;;;;;;14.63;10.07;;;8.20;99.90;;;;;;5055260;28;20136;-78
2021/04/16 07:39:59;;;;;;;15.15;9.52;;;8.10;99.90;;;;;;5055915;28;20082;-78
2021/04/16 07:42:38;;;;;;;13.27;9.45;;;8.10;99.90;;;;;;5057947;28;20557;-78
2021/04/16 07:45:15;;;;;;;15.88;9.85;;;8.00;99.90;;;;;;5061518;28;20132;-78
2021/04/16 07:47:42;;;;;;;13.75;9.35;;;7.90;99.90;;;;;;5056778;28;20124;-79
2021/04/16 07:50:12;;;;;;;13.32;9.68;;;8.00;99.90;;;;;;5058641;28;20044;-79
2021/04/16 07:52:42;;;;;;;16.15;9.05;;;8.20;99.90;;;;;;5059635;28;20087;-77
2021/04/16 07:55:24;;;;;;;13.90;9.52;;;8.30;99.90;;;;;;5058321;28;20048;-77
2021/04/16 07:58:06;;;;;;;14.55;9.10;;;8.40;99.90;;;;;;5055861;28;20584;-78
2021/04/16 08:00:36;;;;;;;15.35;9.95;;;8.40;99.90;;;;;;5057952;28;20091;-77
2021/04/16 08:03:07;;;;;;;15.07;10.88;;;8.50;99.90;;;;;;5057237;28;20445;-78
2021/04/16 08:05:39;;;;;;;17.42;10.15;;;8.80;99.90;;;;;;5059537;28;20094;-77
2021/04/16 08:08:24;;;;;;;13.48;10.95;;;9.10;99.90;;;;;;5059468;28;20083;-78
2021/04/16 08:10:53;;;;;;;14.82;10.68;;;9.20;99.90;;;;;;5056406;28;20128;-77
2021/04/16 08:13:23;;;;;;;17.17;10.88;;;9.50;99.90;;;;;;5054870;28;20059;-76
2021/04/16 08:15:50;;;;;;;15.88;10.57;;;9.50;99.90;;;;;;5046483;28;20092;-77
2021/04/16 08:18:24;;;;;;;14.30;10.20;;;9.70;99.90;;;;;;5045289;28;20045;-77
2021/04/16 08:21:01;;;;;;;12.55;10.52;;;9.70;99.90;;;;;;5046214;28;20109;-79
2021/04/16 08:23:32;;;;;;;13.88;10.88;;;9.70;99.90;;;;;;5045213;28;20132;-77
2021/04/16 08:26:00;;;;;;;14.93;10.90;;;9.60;99.90;;;;;;5044422;28;20525;-77
2021/04/16 08:28:32;;;;;;;17.58;11.13;;;9.40;99.90;;;;;;5043446;28;20061;-77
2021/04/16 08:31:05;;;;;;;15.70;10.77;;;9.30;99.90;;;;;;5045699;28;20469;-79
2021/04/16 08:33:33;;;;;;;;;;;9.40;99.90;;;;;;5048862;28;20137;-78
2021/04/16 08:36:07;;;;;;;16.70;11.20;;;9.40;99.90;;;;;;5046908;28;20410;-78
2021/04/16 08:38:38;;;;;;;13.98;10.27;;;9.50;99.90;;;;;;5046678;28;20061;-78
2021/04/16 08:41:09;;;;;;;16.48;10.90;;;9.60;99.90;;;;;;5044170;28;20512;-78
2021/04/16 08:43:40;;;;;;;15.57;10.43;;;9.60;99.90;;;;;;5044481;28;20099;-76
2021/04/16 08:46:22;;;;;;;14.13;10.30;;;9.70;99.90;;;;;;5043868;28;20057;-76
2021/04/16 08:48:53;;;;;;;14.25;9.88;;;9.70;99.90;;;;;;5045824;28;20049;-78
2021/04/16 08:51:26;;;;;;;14.88;9.95;;;9.70;99.90;;;;;;5046047;28;20045;-78
2021/04/16 08:54:01;;;;;;;13.80;9.80;;;9.80;99.90;;;;;;5049123;28;20076;-79
2021/04/16 08:56:31;;;;;;;14.23;9.93;;;9.80;99.90;;;;;;5043404;28;20052;-77
2021/04/16 08:59:06;;;;;;;20.85;14.00;;;9.80;99.90;;;;;;5059470;28;20109;-78
2021/04/16 09:01:37;;;;;;;14.70;9.15;;;9.90;99.90;;;;;;5069951;28;20076;-78
2021/04/16 09:04:16;;;;;;;11.35;8.77;;;10.00;99.90;;;;;;5069522;28;20053;-78
2021/04/16 09:06:54;;;;;;;9.80;8.25;;;9.90;99.90;;;;;;5045867;28;20460;-78
2021/04/16 09:09:47;;;;;;;10.13;8.15;;;9.80;99.90;;;;;;5059030;28;20128;-77
2021/04/16 09:12:45;;;;;;;14.73;8.68;;;9.80;99.90;;;;;;5057616;28;20099;-77
2021/04/16 09:15:43;;;;;;;10.77;8.77;;;9.90;99.90;;;;;;5045465;28;20049;-78
2021/04/16 09:18:33;;;;;;;12.30;8.25;;;10.20;99.90;;;;;;5060096;28;20076;-79
2021/04/16 09:21:30;;;;;;;10.38;8.15;;;10.30;99.90;;;;;;5057040;28;20049;-75
2021/04/16 09:24:04;;;;;;;10.75;7.32;;;10.70;99.90;;;;;;4974585;28;20141;-77
2021/04/16 09:27:00;;;;;;;9.63;7.50;;;11.10;99.90;;;;;;5039265;28;20084;-77
2021/04/16 09:29:47;;;;;;;11.35;8.25;;;11.30;99.90;;;;;;5053402;28;20497;-78
2021/04/16 09:32:42;;;;;;;10.55;8.15;;;11.50;99.90;;;;;;5055006;28;20124;-77
2021/04/16 09:35:10;;;;;;;9.82;7.93;;;11.40;99.90;;;;;;5054317;28;20103;-77
2021/04/16 09:37:39;;;;;;;7.82;6.30;;;11.30;99.90;;;;;;5053618;28;20053;-77
2021/04/16 09:40:31;;;;;;;11.25;6.32;;;11.20;99.90;;;;;;5056808;28;20045;-78
2021/04/16 09:42:59;;;;;;;8.18;5.70;;;11.10;99.90;;;;;;5055168;28;20337;-77
2021/04/16 09:45:44;;;;;;;8.13;5.90;;;10.70;99.90;;;;;;5055839;28;20131;-78
2021/04/16 09:48:27;;;;;;;6.97;5.18;;;10.50;99.90;;;;;;5070266;22;20057;-78
2021/04/16 10:05:03;;;;;;;9.65;5.97;;;10.70;99.90;;;;;;4981198;28;20155;-78
2021/04/16 10:08:00;;;;;;;9.70;6.10;;;10.80;99.90;;;;;;5049667;28;20045;-78
2021/04/16 10:10:38;;;;;;;10.65;6.13;;;10.60;99.90;;;;;;5055440;28;20052;-80
2021/04/16 10:13:31;;;;;;;8.43;5.80;;;10.70;99.90;;;;;;5056090;28;20053;-78
2021/04/16 10:16:15;;;;;;;8.07;5.50;;;10.80;99.90;;;;;;5055847;28;20049;-78
2021/04/16 10:18:51;;;;;;;12.30;6.30;;;10.90;99.90;;;;;;5055772;28;20060;-79
2021/04/16 10:21:32;;;;;;;9.45;6.20;;;10.90;99.90;;;;;;5055709;28;20045;-78
2021/04/16 12:39:29;;;;;;;6.25;5.20;;;12.00;91.70;;;;;;5058123;28;20067;-78
2021/04/16 12:41:57;;;;;;;;;;;11.80;92.10;;;;;;5057481;28;20049;-79
2021/04/16 12:44:32;;;;;;;5.30;3.95;;;11.80;92.50;;;;;;5057366;28;19928;-78
2021/04/16 12:47:05;;;;;;;8.38;4.32;;;11.90;91.50;;;;;;5057972;28;20444;-78
2021/04/16 12:49:31;;;;;;;5.32;4.40;;;12.10;92.40;;;;;;5058439;28;20052;-78
2021/04/16 12:52:05;;;;;;;6.35;4.57;;;12.30;91.20;;;;;;5057296;28;20049;-77
2021/04/16 12:54:49;;;;;;;6.70;4.65;;;12.40;90.80;;;;;;5041231;28;20496;-78
2021/04/16 12:57:23;;;;;;;5.60;4.25;;;12.50;91.00;;;;;;5056553;28;20529;-78
2021/04/16 13:05:53;;;;;;;6.07;4.20;;;12.50;89.70;;;;;;5056087;28;20053;-80
2021/04/16 13:08:29;;;;;;;5.65;4.00;;;12.70;89.00;;;;;;5062755;28;20124;-79
2021/04/16 13:11:03;;;;;;;5.93;4.40;;;12.60;88.20;;;;;;5061037;28;20049;-79
2021/04/16 13:13:35;;;;;;;8.75;4.10;;;12.70;87.50;;;;;;5060956;28;20057;-78
2021/04/16 13:16:12;;;;;;;5.40;3.78;;;12.80;87.30;;;;;;5056726;28;20049;-77
2021/04/16 13:18:48;;;;;;;4.53;3.67;;;12.90;87.60;;;;;;5056574;28;20453;-77
2021/04/16 13:21:19;;;;;;;5.13;3.72;;;12.80;85.60;;;;;;5055715;28;20088;-78
2021/04/16 13:23:49;;;;;;;5.47;3.60;;;12.80;87.30;;;;;;5057955;28;20071;-78
2021/04/16 13:26:20;;;;;;;5.18;3.97;;;13.00;86.90;;;;;;5055933;28;20049;-79
2021/04/16 13:28:47;;;;;;;5.13;4.18;;;12.90;83.30;;;;;;5056935;28;20477;-78
2021/04/16 13:31:14;;;;;;;5.70;4.07;;;13.00;84.80;;;;;;5055178;28;20049;-79
2021/04/16 13:33:44;;;;;;;7.20;3.80;;;13.10;84.90;;;;;;5055294;28;20130;-79
2021/04/16 13:36:15;;;;;;;4.97;3.90;;;13.30;85.70;;;;;;5057286;28;20398;-78
2021/04/16 13:38:46;;;;;;;4.88;3.72;;;13.10;82.70;;;;;;5058509;28;20049;-83
2021/04/16 13:41:14;;;;;;;5.05;3.60;;;12.70;82.70;;;;;;5059410;28;20421;-80
2021/04/16 13:43:41;;;;;;;8.60;4.22;;;12.60;81.30;;;;;;5057943;28;20053;-79
2021/04/16 13:46:12;;;;;;;6.10;3.60;;;12.60;80.10;;;;;;5059188;28;20131;-80
2021/04/16 13:48:42;;;;;;;5.68;3.70;;;12.70;80.90;;;;;;5059275;28;20052;-79
2021/04/16 13:51:11;;;;;;;4.93;3.72;;;12.80;81.80;;;;;;5061000;28;20182;-80
2021/04/16 13:53:41;;;;;;;5.53;3.67;;;12.80;81.60;;;;;;5058878;28;20049;-80
2021/04/16 13:56:11;;;;;;;6.00;3.47;;;12.90;79.40;;;;;;5057360;28;20073;-78
2021/04/16 13:58:38;;;;;;;7.72;3.70;;;12.80;79.90;;;;;;5053793;28;20067;-78
2021/04/16 14:01:08;;;;;;;5.20;3.63;;;12.80;79.10;;;;;;5055342;28;20132;-77
2021/04/16 14:03:37;;;;;;;5.18;3.67;;;12.70;79.20;;;;;;5055829;28;20131;-78
2021/04/16 14:06:06;;;;;;;7.20;3.75;;;12.60;78.00;;;;;;5056191;28;20148;-79
2021/04/16 14:08:41;;;;;;;5.25;3.60;;;12.50;78.30;;;;;;5055503;28;20049;-79
2021/04/16 14:11:09;;;;;;;6.30;3.63;;;12.40;80.00;;;;;;5055996;28;20061;-79
2021/04/16 14:13:54;;;;;;;8.57;3.92;;;12.60;79.70;;;;;;5058568;28;20073;-79
2021/04/16 14:16:40;;;;;;;4.18;3.40;;;12.60;77.50;;;;;;5057482;28;20059;-78
2021/04/16 14:19:40;;;;;;;5.35;3.97;;;12.70;78.30;;;;;;5056190;28;20052;-78
2021/04/16 14:22:10;;;;;;;6.10;3.78;;;12.80;77.20;;;;;;5054807;28;20110;-79
2021/04/16 14:24:36;;;;;;;5.00;3.90;;;12.70;75.70;;;;;;5054149;28;20049;-77
2021/04/16 14:27:06;;;;;;;5.28;3.72;;;12.70;76.90;;;;;;5054389;28;20061;-78
2021/04/16 14:29:36;;;;;;;4.95;4.32;;;12.80;77.60;;;;;;5054446;28;20052;-79
2021/04/16 14:32:03;;;;;;;17.17;10.93;;;12.80;76.20;;;;;;5054849;28;20338;-78
2021/04/16 14:34:33;;;;;;;6.57;4.10;;;12.60;77.80;;;;;;5054700;28;20128;-81
2021/04/16 14:37:04;;;;;;;8.05;4.63;;;12.60;79.00;;;;;;5056290;28;20508;-80
2021/04/16 14:39:34;;;;;;;7.80;4.10;;;12.70;80.30;;;;;;5058460;28;20075;-79
2021/04/16 14:42:04;;;;;;;6.78;4.07;;;12.90;78.40;;;;;;5057714;28;20045;-78
2021/04/16 14:44:31;;;;;;;9.73;4.32;;;12.90;76.40;;;;;;5059021;28;20406;-79
2021/04/16 14:46:59;;;;;;;6.53;4.32;;;13.00;76.10;;;;;;5060687;28;20053;-80
2021/04/16 14:49:30;;;;;;;5.88;4.25;;;13.00;77.40;;;;;;5059323;28;20049;-76
2021/04/16 14:52:01;;;;;;;5.13;4.22;;;12.90;77.70;;;;;;5058634;28;20523;-80
2021/04/16 14:54:30;;;;;;;6.22;4.70;;;13.00;78.60;;;;;;5059725;28;20045;-80
2021/04/16 14:56:58;;;;;;;6.20;4.63;;;13.00;78.00;;;;;;5059141;28;20079;-80
2021/04/16 14:59:31;;;;;;;7.55;4.50;;;13.00;79.40;;;;;;5059757;28;20079;-79
2021/04/16 15:02:03;;;;;;;6.40;4.55;;;13.20;79.70;;;;;;5058823;28;20263;-79
2021/04/16 15:04:30;;;;;;;7.45;4.82;;;13.20;79.20;;;;;;5057289;28;20052;-82
2021/04/16 15:07:03;;;;;;;6.82;5.20;;;13.30;79.80;;;;;;5060441;28;20052;-78
2021/04/16 15:09:35;;;;;;;7.72;5.10;;;13.20;78.90;;;;;;5060899;28;20132;-79
2021/04/16 15:12:03;;;;;;;7.07;4.95;;;13.20;79.30;;;;;;5061081;28;20585;-79
2021/04/16 15:14:33;;;;;;;7.50;4.68;;;13.30;80.40;;;;;;5058781;28;20110;-79
2021/04/16 15:17:00;;;;;;;8.48;5.20;;;13.20;81.40;;;;;;5059480;28;20049;-79
2021/04/16 15:19:33;;;;;;;6.32;5.13;;;13.10;82.00;;;;;;5059108;28;20060;-80
2021/04/16 15:22:03;;;;;;;6.75;4.60;;;13.00;82.00;;;;;;5058508;28;20049;-78
2021/04/16 15:24:29;;;;;;;10.02;5.20;;;12.90;82.50;;;;;;5058487;28;20179;-78
2021/04/16 15:26:57;;;;;;;8.82;4.60;;;12.60;81.30;;;;;;5059638;28;20081;-80
2021/04/16 15:29:31;;;;;;;7.88;5.13;;;12.70;81.70;;;;;;5059444;28;20053;-80
2021/04/16 15:31:57;;;;;;;7.43;5.07;;;12.80;80.30;;;;;;5059091;28;20121;-80
2021/04/16 15:48:08;;;;;;;6.65;5.30;;;12.90;82.30;;;;;;5084897;22;20053;-78
2021/04/16 15:50:40;;;;;;;8.13;4.70;;;12.80;82.10;;;;;;5063622;28;20049;-79
2021/04/16 15:53:11;;;;;;;6.60;5.50;;;12.80;82.80;;;;;;5062709;28;20053;-79
2021/04/16 15:55:37;;;;;;;6.90;5.35;;;12.80;81.70;;;;;;5057214;28;20048;-79
2021/04/16 15:58:05;;;;;;;7.45;4.97;;;12.80;81.40;;;;;;5057676;28;20056;-79
2021/04/16 16:00:38;;;;;;;7.07;6.25;;;12.70;81.20;;;;;;5057748;28;20385;-79
2021/04/16 16:03:06;;;;;;;6.72;4.72;;;12.70;81.60;;;;;;5057999;28;20057;-78
2021/04/16 16:05:33;;;;;;;8.00;4.90;;;12.70;81.40;;;;;;5057157;28;20055;-79